Terminal Aerodrome Forecast
Issued by NWS

Home | Current Version | Previous Version | Text Only | Print | Product List | Glossary On
Versions: 1 2 3 4 5 6 7 8 9 10 11 12 13 14 15 16 17 18 19 20 21
000
FTUS43 KGRB 080500
TAFATW
TAF
KATW 080520Z 0806/0906 25006KT P6SM -SHRA SCT030 BKN070
     FM080800 25006KT P6SM VCSH SCT025 OVC070
      TEMPO 0808/0810 5SM -SHRA BKN025
     FM081000 26009KT P6SM VCSH SCT018 BKN035
     FM081200 28008KT 4SM BR BKN015
     FM081700 31008KT P6SM VCSH SCT020 BKN050
     FM082300 30005KT P6SM SCT050 BKN100=

USA.gov is the U.S. government's official web portal to all federal, state and local government web resources and services.